createdAt,value
2023-03-02T00:00:59.144Z,3
2023-03-02T00:02:06.300Z,3
2023-03-02T00:03:13.380Z,3
2023-03-02T00:04:20.411Z,3
2023-03-02T00:05:27.612Z,3
2023-03-02T00:07:41.190Z,2.9
2023-03-02T00:08:48.378Z,2.9
2023-03-02T00:09:55.541Z,2.9
2023-03-02T00:11:02.491Z,2.8
2023-03-02T00:12:09.054Z,2.8
2023-03-02T00:13:16.256Z,2.8
2023-03-02T00:14:23.438Z,2.8
2023-03-02T00:16:38.089Z,2.7
2023-03-02T00:17:44.157Z,2.7
2023-03-02T00:18:51.197Z,2.7
2023-03-02T00:19:58.421Z,2.6
2023-03-02T00:21:05.464Z,2.6
2023-03-02T00:22:12.670Z,2.6
2023-03-02T00:23:19.214Z,2.6
2023-03-02T00:24:26.205Z,2.6
2023-03-02T00:25:33.424Z,2.6
2023-03-02T00:26:40.462Z,2.6
2023-03-02T00:27:47.582Z,2.5
2023-03-02T00:28:54.219Z,2.5
2023-03-02T00:30:01.268Z,2.5
2023-03-02T00:31:08.549Z,2.5
2023-03-02T00:32:15.585Z,2.5
2023-03-02T00:33:22.646Z,2.5
2023-03-02T00:34:29.683Z,2.5
2023-03-02T00:35:36.306Z,2.5
2023-03-02T00:36:43.803Z,2.4
2023-03-02T00:37:50.561Z,2.4
2023-03-02T00:38:57.506Z,2.4
2023-03-02T00:40:04.262Z,2.4
2023-03-02T00:41:11.198Z,2.4
2023-03-02T00:42:18.417Z,2.4
2023-03-02T00:43:26.046Z,2.3
2023-03-02T00:44:32.618Z,2.3
2023-03-02T00:45:39.184Z,2.3
2023-03-02T00:46:46.436Z,2.3
2023-03-02T00:47:53.489Z,2.3
2023-03-02T00:49:00.495Z,2.2
2023-03-02T00:50:07.578Z,2.2
2023-03-02T00:51:14.146Z,2.2
2023-03-02T00:52:21.213Z,2.2
2023-03-02T00:53:28.422Z,2.2
2023-03-02T00:54:35.540Z,2.2
2023-03-02T00:55:42.657Z,2.1
2023-03-02T00:56:49.217Z,2.1
2023-03-02T00:57:56.383Z,2
2023-03-02T00:59:03.426Z,2
2023-03-02T01:00:10.425Z,2
2023-03-02T01:01:18.691Z,2
2023-03-02T01:02:24.341Z,2
2023-03-02T01:03:31.398Z,2
2023-03-02T01:04:38.426Z,1.9
2023-03-02T01:05:45.528Z,1.9
2023-03-02T01:06:52.062Z,1.9
2023-03-02T01:07:59.228Z,1.8
2023-03-02T01:09:06.378Z,1.8
2023-03-02T01:10:13.492Z,1.8
2023-03-02T01:11:20.528Z,1.8
2023-03-02T01:12:27.137Z,1.8
2023-03-02T01:13:34.397Z,1.8
2023-03-02T01:14:41.244Z,1.8
2023-03-02T01:15:48.496Z,1.8
2023-03-02T01:16:55.589Z,1.8
2023-03-02T01:18:02.745Z,1.8
2023-03-02T01:20:16.369Z,1.7
2023-03-02T01:21:23.454Z,1.7
2023-03-02T01:22:30.568Z,1.6
2023-03-02T01:23:37.254Z,1.6
2023-03-02T01:24:44.190Z,1.6
2023-03-02T01:25:51.262Z,1.6
2023-03-02T01:26:58.494Z,1.6
2023-03-02T01:28:05.576Z,1.5
2023-03-02T01:29:12.091Z,1.5
2023-03-02T01:30:19.166Z,1.4
2023-03-02T01:31:26.436Z,1.4
2023-03-02T01:32:33.598Z,1.4
2023-03-02T01:33:40.585Z,1.4
2023-03-02T01:35:54.360Z,1.3
2023-03-02T01:37:01.289Z,1.2
2023-03-02T01:38:09.086Z,1.2
2023-03-02T01:39:15.597Z,1.2
2023-03-02T01:40:22.181Z,1.2
2023-03-02T01:41:29.265Z,1.1
2023-03-02T01:42:36.416Z,1.1
2023-03-02T01:43:43.500Z,1
2023-03-02T01:44:50.605Z,1
2023-03-02T01:45:57.523Z,1
2023-03-02T01:47:04.454Z,1
2023-03-02T01:48:11.363Z,1
2023-03-02T01:49:18.467Z,1
2023-03-02T01:50:25.545Z,1
2023-03-02T01:51:32.120Z,0.9
2023-03-02T01:52:39.306Z,0.8
2023-03-02T01:53:46.505Z,0.8
2023-03-02T01:54:53.441Z,0.8
2023-03-02T01:56:00.588Z,0.8
2023-03-02T01:57:07.188Z,0.8
2023-03-02T01:58:14.267Z,0.8
2023-03-02T01:59:21.374Z,0.7
2023-03-02T02:00:28.419Z,0.7
2023-03-02T02:01:35.559Z,0.6
2023-03-02T02:02:42.160Z,0.6
2023-03-02T02:03:49.279Z,0.6
2023-03-02T02:04:56.345Z,0.6
2023-03-02T02:06:03.588Z,0.6
2023-03-02T02:07:10.685Z,0.6
2023-03-02T02:08:17.318Z,0.6
2023-03-02T02:09:24.249Z,0.6
2023-03-02T02:10:31.324Z,0.5
2023-03-02T02:11:39.013Z,0.5
2023-03-02T02:12:45.685Z,0.5
2023-03-02T02:13:52.230Z,0.5
2023-03-02T02:14:59.315Z,0.5
2023-03-02T02:16:06.603Z,0.5
2023-03-02T02:17:13.558Z,0.5
2023-03-02T02:18:20.707Z,0.4
2023-03-02T02:19:27.213Z,0.4
2023-03-02T02:20:34.327Z,0.4
2023-03-02T02:21:41.331Z,0.4
2023-03-02T02:23:55.880Z,0.4
2023-03-02T02:25:02.436Z,0.4
2023-03-02T02:26:09.304Z,0.4
2023-03-02T02:27:16.444Z,0.4
2023-03-02T02:28:23.580Z,0.4
2023-03-02T02:29:30.574Z,0.4
2023-03-02T02:30:37.242Z,0.4
2023-03-02T02:31:44.433Z,0.4
2023-03-02T02:32:51.475Z,0.4
2023-03-02T02:33:58.461Z,0.4
2023-03-02T02:35:05.679Z,0.4
2023-03-02T02:36:12.191Z,0.4
2023-03-02T02:37:19.336Z,0.4
2023-03-02T02:38:26.604Z,0.4
2023-03-02T02:39:33.501Z,0.3
2023-03-02T02:40:40.688Z,0.3
2023-03-02T02:41:47.781Z,0.3
2023-03-02T02:42:54.468Z,0.3
2023-03-02T02:44:01.401Z,0.3
2023-03-02T02:45:08.554Z,0.3
2023-03-02T02:46:15.748Z,0.3
2023-03-02T02:47:22.304Z,0.2
2023-03-02T02:48:29.558Z,0.2
2023-03-02T02:49:36.608Z,0.2
2023-03-02T02:50:43.517Z,0.2
2023-03-02T02:51:50.153Z,0.2
2023-03-02T02:52:57.348Z,0.2
2023-03-02T02:54:04.376Z,0.2
2023-03-02T02:55:11.412Z,0.2
2023-03-02T02:56:18.568Z,0.2
2023-03-02T02:57:25.180Z,0.2
2023-03-02T02:58:32.281Z,0.2
2023-03-02T02:59:39.354Z,0.2
2023-03-02T03:00:46.455Z,0.2
2023-03-02T03:01:53.531Z,0.2
2023-03-02T03:04:07.417Z,0.2
2023-03-02T03:05:14.329Z,0.2
2023-03-02T03:06:21.508Z,0.1
2023-03-02T03:07:28.620Z,0.1
2023-03-02T03:08:35.149Z,0.1
2023-03-02T03:09:42.285Z,0.1
2023-03-02T03:10:49.294Z,0.1
2023-03-02T03:11:56.437Z,0.1
2023-03-02T03:13:03.639Z,0.1
2023-03-02T03:14:10.184Z,0.1
2023-03-02T03:15:17.323Z,0.1
2023-03-02T03:16:24.516Z,0.1
2023-03-02T03:17:31.522Z,0.1
2023-03-02T03:18:38.676Z,0.1
2023-03-02T03:19:45.270Z,0.1
2023-03-02T03:20:54.170Z,0.1
2023-03-02T03:21:59.423Z,0.1
2023-03-02T03:23:06.540Z,0.1
2023-03-02T03:24:13.630Z,0.1
2023-03-02T03:25:20.209Z,0.1
2023-03-02T03:27:34.462Z,0
2023-03-02T03:28:41.448Z,0
2023-03-02T03:29:48.553Z,0
2023-03-02T03:30:55.449Z,0
2023-03-02T03:32:02.416Z,0
2023-03-02T03:33:09.379Z,0
2023-03-02T03:34:16.530Z,0
2023-03-02T03:35:23.696Z,0
2023-03-02T03:36:30.635Z,0
2023-03-02T03:37:37.316Z,-0.1
2023-03-02T03:38:44.454Z,-0.1
2023-03-02T03:39:51.480Z,-0.1
2023-03-02T03:40:58.546Z,-0.1
2023-03-02T03:42:05.280Z,-0.2
2023-03-02T03:43:12.304Z,-0.1
2023-03-02T03:44:19.340Z,-0.1
2023-03-02T03:45:28.836Z,-0.2
2023-03-02T03:46:34.172Z,-0.2
2023-03-02T03:47:40.203Z,-0.2
2023-03-02T03:48:47.405Z,-0.2
2023-03-02T03:49:54.384Z,-0.2
2023-03-02T03:51:01.477Z,-0.2
2023-03-02T03:52:08.694Z,-0.2
2023-03-02T03:53:15.215Z,-0.2
2023-03-02T03:54:22.286Z,-0.2
2023-03-02T03:55:29.363Z,-0.3
2023-03-02T03:56:36.567Z,-0.2
2023-03-02T03:57:43.631Z,-0.2
2023-03-02T03:58:50.287Z,-0.2
2023-03-02T03:59:57.364Z,-0.2
2023-03-02T04:01:04.533Z,-0.2
2023-03-02T04:02:11.665Z,-0.2
2023-03-02T04:03:18.646Z,-0.2
2023-03-02T04:04:25.235Z,-0.2
2023-03-02T04:05:32.341Z,-0.2
2023-03-02T04:06:39.375Z,-0.2
2023-03-02T04:07:46.589Z,-0.2
2023-03-02T04:08:53.700Z,-0.2
2023-03-02T04:10:00.156Z,-0.2
2023-03-02T04:11:07.364Z,-0.2
2023-03-02T04:12:14.526Z,-0.2
2023-03-02T04:13:21.607Z,-0.2
2023-03-02T04:14:28.587Z,-0.2
2023-03-02T04:15:35.303Z,-0.2
2023-03-02T04:16:42.407Z,-0.2
2023-03-02T04:17:49.506Z,-0.2
2023-03-02T04:18:56.578Z,-0.2
2023-03-02T04:20:03.705Z,-0.3
2023-03-02T04:21:10.256Z,-0.3
2023-03-02T04:22:17.314Z,-0.3
2023-03-02T04:23:24.509Z,-0.3
2023-03-02T04:24:31.576Z,-0.3
2023-03-02T04:25:38.645Z,-0.3
2023-03-02T04:26:45.310Z,-0.3
2023-03-02T04:27:52.478Z,-0.3
2023-03-02T04:28:59.485Z,-0.3
2023-03-02T04:31:13.798Z,-0.3
2023-03-02T04:32:20.329Z,-0.3
2023-03-02T04:33:27.337Z,-0.3
2023-03-02T04:34:34.415Z,-0.3
2023-03-02T04:35:41.583Z,-0.3
2023-03-02T04:36:48.733Z,-0.3
2023-03-02T04:37:55.350Z,-0.3
2023-03-02T04:39:02.394Z,-0.3
2023-03-02T04:40:09.428Z,-0.3
2023-03-02T04:41:16.808Z,-0.2
2023-03-02T04:42:23.665Z,-0.2
2023-03-02T04:43:30.358Z,-0.2
2023-03-02T04:44:37.400Z,-0.2
2023-03-02T04:45:44.555Z,-0.2
2023-03-02T04:46:51.803Z,-0.1
2023-03-02T04:47:58.747Z,-0.1
2023-03-02T04:49:05.846Z,-0.1
2023-03-02T04:50:12.371Z,-0.1
2023-03-02T04:51:19.589Z,-0.1
2023-03-02T04:52:26.748Z,-0.1
2023-03-02T04:53:33.838Z,-0.1
2023-03-02T04:54:40.239Z,0
2023-03-02T04:55:47.404Z,0
2023-03-02T04:56:54.552Z,0
2023-03-02T04:58:01.728Z,-0.1
2023-03-02T04:59:08.662Z,0
2023-03-02T05:00:15.331Z,-0.1
2023-03-02T05:01:22.460Z,-0.1
2023-03-02T05:02:29.647Z,-0.2
2023-03-02T05:03:36.707Z,-0.2
2023-03-02T05:04:43.901Z,-0.2
2023-03-02T05:05:50.356Z,-0.2
2023-03-02T05:06:57.361Z,-0.2
2023-03-02T05:08:05.214Z,-0.2
2023-03-02T05:09:11.661Z,-0.2
2023-03-02T05:10:18.812Z,-0.2
2023-03-02T05:11:25.391Z,-0.2
2023-03-02T05:12:32.452Z,-0.2
2023-03-02T05:13:39.612Z,-0.3
2023-03-02T05:14:46.704Z,-0.3
2023-03-02T05:15:53.835Z,-0.3
2023-03-02T05:17:00.397Z,-0.3
2023-03-02T05:18:07.723Z,-0.3
2023-03-02T05:19:14.748Z,-0.4
2023-03-02T05:20:21.686Z,-0.4
2023-03-02T05:21:28.848Z,-0.4
2023-03-02T05:22:35.310Z,-0.4
2023-03-02T05:23:42.576Z,-0.4
2023-03-02T05:24:49.583Z,-0.4
2023-03-02T05:25:56.708Z,-0.4
2023-03-02T05:27:03.794Z,-0.4
2023-03-02T05:28:10.275Z,-0.4
2023-03-02T05:29:17.391Z,-0.4
2023-03-02T05:30:24.631Z,-0.4
2023-03-02T05:31:31.767Z,-0.4
2023-03-02T05:32:38.848Z,-0.4
2023-03-02T05:34:52.626Z,-0.4
2023-03-02T05:35:59.539Z,-0.4
2023-03-02T05:37:06.699Z,-0.4
2023-03-02T05:38:13.404Z,-0.4
2023-03-02T05:39:20.384Z,-0.4
2023-03-02T05:40:27.492Z,-0.5
2023-03-02T05:41:34.644Z,-0.5
2023-03-02T05:42:41.712Z,-0.5
2023-03-02T05:43:48.273Z,-0.4
2023-03-02T05:44:55.435Z,-0.4
2023-03-02T05:46:02.530Z,-0.4
2023-03-02T05:47:09.663Z,-0.4
2023-03-02T05:48:16.814Z,-0.4
2023-03-02T05:49:23.242Z,-0.4
2023-03-02T05:50:30.374Z,-0.3
2023-03-02T05:51:37.496Z,-0.4
2023-03-02T05:52:45.145Z,-0.4
2023-03-02T05:53:51.714Z,-0.3
2023-03-02T05:54:59.547Z,-0.4
2023-03-02T05:56:05.405Z,-0.4
2023-03-02T05:57:12.445Z,-0.3
2023-03-02T05:58:19.652Z,-0.3
2023-03-02T05:59:26.701Z,-0.4
2023-03-02T06:00:33.339Z,-0.4
2023-03-02T06:01:40.486Z,-0.4
2023-03-02T06:02:47.548Z,-0.4
2023-03-02T06:03:54.633Z,-0.4
2023-03-02T06:05:01.786Z,-0.4
2023-03-02T06:06:08.451Z,-0.4
2023-03-02T06:07:15.474Z,-0.4
2023-03-02T06:08:22.595Z,-0.4
2023-03-02T06:09:29.651Z,-0.4
2023-03-02T06:10:36.760Z,-0.4
2023-03-02T06:11:43.370Z,-0.3
2023-03-02T06:12:50.349Z,-0.4
2023-03-02T06:13:57.593Z,-0.4
2023-03-02T06:15:04.631Z,-0.3
2023-03-02T06:16:11.869Z,-0.3
2023-03-02T06:17:18.332Z,-0.3
2023-03-02T06:18:25.438Z,-0.4
2023-03-02T06:19:32.658Z,-0.4
2023-03-02T06:20:39.635Z,-0.4
2023-03-02T06:21:46.769Z,-0.3
2023-03-02T06:22:53.349Z,-0.3
2023-03-02T06:24:00.428Z,-0.3
2023-03-02T06:25:07.575Z,-0.3
2023-03-02T06:26:14.689Z,-0.3
2023-03-02T06:27:21.745Z,-0.3
2023-03-02T06:28:28.328Z,-0.3
2023-03-02T06:29:35.457Z,-0.2
2023-03-02T06:30:42.608Z,-0.2
2023-03-02T06:31:49.638Z,-0.2
2023-03-02T06:32:56.702Z,-0.2
2023-03-02T06:34:03.294Z,-0.2
2023-03-02T06:35:11.524Z,-0.1
2023-03-02T06:38:31.739Z,-0.1
2023-03-02T06:39:38.275Z,-0.1
2023-03-02T06:40:45.428Z,-0.1
2023-03-02T06:41:52.649Z,0
2023-03-02T06:42:59.651Z,0
2023-03-02T06:44:06.787Z,-0.1
2023-03-02T06:45:13.372Z,-0.1
2023-03-02T06:46:20.445Z,-0.1
2023-03-02T06:47:27.484Z,-0.1
2023-03-02T06:48:34.831Z,-0.1
2023-03-02T06:49:41.844Z,0
2023-03-02T06:50:48.280Z,0
2023-03-02T06:51:55.520Z,0
2023-03-02T06:53:02.573Z,0
2023-03-02T06:54:09.673Z,0
2023-03-02T06:55:16.903Z,0
2023-03-02T06:56:24.013Z,0
2023-03-02T06:57:30.487Z,0.1
2023-03-02T06:58:37.654Z,0.1
2023-03-02T06:59:44.824Z,0.1
2023-03-02T07:00:54.539Z,0.1
2023-03-02T07:01:58.419Z,0.1
2023-03-02T07:03:05.596Z,0.2
2023-03-02T07:04:12.555Z,0.1
2023-03-02T07:05:19.716Z,0.1
2023-03-02T07:06:26.874Z,0.1
2023-03-02T07:07:33.323Z,0.1
2023-03-02T07:08:40.562Z,0.1
2023-03-02T07:09:47.750Z,0.1
2023-03-02T07:10:54.761Z,0.1
2023-03-02T07:12:01.786Z,0.2
2023-03-02T07:13:09.316Z,0.1
2023-03-02T07:14:15.617Z,0.2
2023-03-02T07:15:22.650Z,0.1
2023-03-02T07:16:29.936Z,0.2
2023-03-02T07:17:36.779Z,0.2
2023-03-02T07:18:43.627Z,0.2
2023-03-02T07:19:50.553Z,0.3
2023-03-02T07:20:57.533Z,0.3
2023-03-02T07:22:04.779Z,0.3
2023-03-02T07:23:12.069Z,0.3
2023-03-02T07:24:18.331Z,0.3
2023-03-02T07:25:25.568Z,0.3
2023-03-02T07:26:55.756Z,0.3
2023-03-02T07:27:39.699Z,0.3
2023-03-02T07:28:51.977Z,0.4
2023-03-02T07:29:53.430Z,0.3
2023-03-02T07:31:00.730Z,0.4
2023-03-02T07:32:07.681Z,0.4
2023-03-02T07:33:14.745Z,0.4
2023-03-02T07:34:21.885Z,0.4
2023-03-02T07:35:28.574Z,0.5
2023-03-02T07:36:35.517Z,0.5
2023-03-02T07:37:42.676Z,0.5
2023-03-02T07:38:49.750Z,0.5
2023-03-02T07:39:58.392Z,0.6
2023-03-02T07:42:10.507Z,0.6
2023-03-02T07:43:17.611Z,0.6
2023-03-02T07:44:24.886Z,0.6
2023-03-02T07:45:31.835Z,0.6
2023-03-02T07:46:38.471Z,0.6
2023-03-02T07:47:45.513Z,0.6
2023-03-02T07:48:52.696Z,0.7
2023-03-02T07:49:59.809Z,0.7
2023-03-02T07:51:06.894Z,0.7
2023-03-02T07:52:13.497Z,0.7
2023-03-02T07:53:20.554Z,0.7
2023-03-02T07:54:27.634Z,0.7
2023-03-02T07:55:34.838Z,0.7
2023-03-02T07:56:41.883Z,0.7
2023-03-02T07:57:48.425Z,0.7
2023-03-02T07:58:55.517Z,0.8
2023-03-02T08:00:03.260Z,0.8
2023-03-02T08:01:09.842Z,0.8
2023-03-02T08:02:16.854Z,0.8
2023-03-02T08:03:23.560Z,0.9
2023-03-02T08:05:37.663Z,0.9
2023-03-02T08:06:44.816Z,0.9
2023-03-02T08:07:51.902Z,0.9
2023-03-02T08:08:58.499Z,0.9
2023-03-02T08:10:05.546Z,0.9
2023-03-02T08:11:12.603Z,0.9
2023-03-02T08:12:19.856Z,0.9
2023-03-02T08:13:26.974Z,1
2023-03-02T08:14:33.526Z,1
2023-03-02T08:15:40.597Z,1
2023-03-02T08:16:47.666Z,1
2023-03-02T08:17:54.949Z,1.1
2023-03-02T08:19:01.924Z,1.1
2023-03-02T08:20:08.473Z,1.1
2023-03-02T08:21:15.519Z,1.1
2023-03-02T08:22:22.660Z,1.2
2023-03-02T08:23:29.868Z,1.2
2023-03-02T08:24:36.884Z,1.2
2023-03-02T08:25:43.454Z,1.2
2023-03-02T08:26:50.601Z,1.3
2023-03-02T08:29:04.930Z,1.3
2023-03-02T08:30:11.888Z,1.3
2023-03-02T08:31:18.524Z,1.3
2023-03-02T08:32:25.655Z,1.4
2023-03-02T08:33:32.772Z,1.4
2023-03-02T08:34:39.794Z,1.4
2023-03-02T08:35:47.007Z,1.5
2023-03-02T08:36:53.511Z,1.5
2023-03-02T08:38:00.653Z,1.5
2023-03-02T08:39:07.751Z,1.5
2023-03-02T08:40:14.830Z,1.5
2023-03-02T08:41:21.902Z,1.5
2023-03-02T08:42:28.481Z,1.5
2023-03-02T08:43:35.617Z,1.5
2023-03-02T08:45:49.912Z,1.6
2023-03-02T08:46:56.372Z,1.6
2023-03-02T08:48:03.538Z,1.6
2023-03-02T08:49:10.729Z,1.7
2023-03-02T08:50:17.701Z,1.7
2023-03-02T08:51:24.807Z,1.7
2023-03-02T08:52:31.361Z,1.7
2023-03-02T08:53:38.496Z,1.8
2023-03-02T08:54:45.770Z,1.8
2023-03-02T08:55:52.704Z,1.9
2023-03-02T08:56:59.905Z,1.9
2023-03-02T08:58:06.489Z,2
2023-03-02T08:59:13.498Z,1.9
2023-03-02T09:00:20.646Z,2
2023-03-02T09:01:27.718Z,2.1
2023-03-02T09:02:34.825Z,2.1
2023-03-02T09:03:42.047Z,2.1
2023-03-02T09:04:48.522Z,2.1
2023-03-02T09:05:55.608Z,2.2
2023-03-02T09:07:02.828Z,2.3
2023-03-02T09:08:09.848Z,2.3
2023-03-02T09:09:16.378Z,2.3
2023-03-02T09:10:23.587Z,2.4
2023-03-02T09:11:30.969Z,2.4
2023-03-02T09:12:37.759Z,2.5
2023-03-02T09:13:44.933Z,2.5
2023-03-02T09:14:51.458Z,2.5
2023-03-02T09:15:58.538Z,2.6
2023-03-02T09:17:05.684Z,2.6
2023-03-02T09:18:12.769Z,2.7
2023-03-02T09:19:19.925Z,2.8
2023-03-02T09:20:26.496Z,2.7
2023-03-02T09:21:34.020Z,2.8
2023-03-02T09:22:40.654Z,2.8
2023-03-02T09:23:47.872Z,2.9
2023-03-02T09:24:54.846Z,2.9
2023-03-02T09:26:01.442Z,2.9
2023-03-02T09:27:08.537Z,3
2023-03-02T09:28:15.747Z,3.1
2023-03-02T09:29:22.843Z,3.1
2023-03-02T09:30:29.861Z,3.1
2023-03-02T09:31:37.250Z,3.2
2023-03-02T09:33:50.629Z,3.3
2023-03-02T09:34:57.718Z,3.3
2023-03-02T09:36:04.899Z,3.3
2023-03-02T09:37:11.503Z,3.4
2023-03-02T09:38:18.627Z,3.4
2023-03-02T09:39:25.699Z,3.5
2023-03-02T09:40:32.766Z,3.5
2023-03-02T09:41:39.842Z,3.5
2023-03-02T09:42:46.563Z,3.6
2023-03-02T09:43:53.615Z,3.7
2023-03-02T09:45:00.732Z,3.7
2023-03-02T09:46:07.815Z,3.7
2023-03-02T09:47:16.512Z,3.8
2023-03-02T09:49:28.629Z,3.9
2023-03-02T09:50:35.678Z,4
2023-03-02T09:51:42.828Z,4.1
2023-03-02T09:52:49.945Z,4.1
2023-03-02T09:53:56.601Z,4.3
2023-03-02T09:55:03.711Z,4.5
2023-03-02T09:56:10.731Z,4.7
2023-03-02T09:57:17.758Z,4.8
2023-03-02T09:58:24.956Z,4.9
2023-03-02T09:59:31.598Z,5
2023-03-02T10:00:38.572Z,5.1
2023-03-02T10:01:45.739Z,5.1
2023-03-02T10:02:52.956Z,5.2
2023-03-02T10:04:00.098Z,5.3
2023-03-02T10:05:06.578Z,5.3
2023-03-02T10:06:13.696Z,5.4
2023-03-02T10:07:21.245Z,5.5
2023-03-02T10:08:27.812Z,5.5
2023-03-02T10:09:34.440Z,5.6
2023-03-02T10:10:41.620Z,5.7
2023-03-02T10:11:48.791Z,5.8
2023-03-02T10:12:55.887Z,5.9
2023-03-02T10:14:02.905Z,6
2023-03-02T10:15:09.633Z,6.1
2023-03-02T10:16:16.636Z,6.3
2023-03-02T10:17:23.779Z,6.3
2023-03-02T10:18:30.895Z,6.5
2023-03-02T10:19:37.930Z,6.5
2023-03-02T10:20:44.958Z,6.6
2023-03-02T10:21:51.522Z,6.7
2023-03-02T10:22:58.775Z,6.8
2023-03-02T10:24:05.912Z,6.9
2023-03-02T10:25:12.816Z,6.9
2023-03-02T10:26:19.902Z,7
2023-03-02T10:27:26.657Z,7
2023-03-02T10:28:33.632Z,7.1
2023-03-02T10:29:40.738Z,7.2
2023-03-02T10:30:48.003Z,7.2
2023-03-02T10:31:54.571Z,7.2
2023-03-02T10:34:05.939Z,7.2
2023-03-02T10:34:08.845Z,7.2
2023-03-02T10:35:15.898Z,7.2
2023-03-02T10:36:22.873Z,7.2
2023-03-02T10:37:29.480Z,7.2
2023-03-02T10:38:38.223Z,7.2
2023-03-02T10:39:43.699Z,7.1
2023-03-02T10:40:50.717Z,7.1
2023-03-02T10:41:58.005Z,7.1
2023-03-02T10:43:04.606Z,7.1
2023-03-02T10:44:11.722Z,7.1
2023-03-02T10:45:18.811Z,7
2023-03-02T10:46:25.881Z,7
2023-03-02T10:47:32.913Z,7
2023-03-02T10:48:40.987Z,7.1
2023-03-02T10:49:46.606Z,7.2
2023-03-02T10:50:54.429Z,7.3
2023-03-02T10:53:07.831Z,7.5
2023-03-02T10:54:14.551Z,7.7
2023-03-02T10:55:21.707Z,7.7
2023-03-02T10:56:28.644Z,7.8
2023-03-02T10:57:35.794Z,7.8
2023-03-02T10:58:42.888Z,7.8
2023-03-02T10:59:49.531Z,7.9
2023-03-02T11:02:03.726Z,7.9
2023-03-02T11:03:10.726Z,7.8
2023-03-02T11:04:18.103Z,7.7
2023-03-02T11:05:24.727Z,7.6
2023-03-02T11:06:31.995Z,7.5
2023-03-02T11:07:38.795Z,7.4
2023-03-02T11:08:45.867Z,7.2
2023-03-02T11:09:52.882Z,7.2
2023-03-02T11:11:01.163Z,7
2023-03-02T11:12:06.705Z,6.9
2023-03-02T11:13:13.733Z,6.8
2023-03-02T11:14:20.828Z,6.8
2023-03-02T11:15:27.933Z,6.8
2023-03-02T11:16:34.559Z,6.7
2023-03-02T11:17:41.716Z,6.7
2023-03-02T11:18:48.749Z,6.7
2023-03-02T11:19:55.846Z,6.7
2023-03-02T11:21:03.004Z,6.7
2023-03-02T11:22:09.483Z,6.7
2023-03-02T11:23:16.755Z,6.8
2023-03-02T11:24:23.755Z,6.8
2023-03-02T11:25:30.770Z,7
2023-03-02T11:26:37.876Z,7.1
2023-03-02T11:27:44.577Z,7.2
2023-03-02T11:28:51.617Z,7.3
2023-03-02T11:29:58.739Z,7.3
2023-03-02T11:31:05.925Z,7.4
2023-03-02T11:32:13.007Z,7.4
2023-03-02T11:33:19.595Z,7.4
2023-03-02T11:34:26.672Z,7.5
2023-03-02T11:35:33.796Z,7.5
2023-03-02T11:36:40.779Z,7.6
2023-03-02T11:37:47.971Z,7.7
2023-03-02T11:38:54.591Z,7.7
2023-03-02T11:40:01.620Z,7.8
2023-03-02T11:41:08.755Z,7.8
2023-03-02T11:42:15.933Z,7.9
2023-03-02T11:43:22.475Z,8
2023-03-02T11:44:29.479Z,8.1
2023-03-02T11:45:36.710Z,8.1
2023-03-02T11:46:43.824Z,8
2023-03-02T11:47:57.495Z,8.1
2023-03-02T11:48:57.499Z,8
2023-03-02T11:50:04.525Z,8
2023-03-02T11:51:11.766Z,8.1
2023-03-02T11:52:18.752Z,8.1
2023-03-02T11:53:25.899Z,8.1
2023-03-02T11:54:32.432Z,7.9
2023-03-02T11:56:46.637Z,7.8
2023-03-02T11:57:53.828Z,7.8
2023-03-02T11:59:00.899Z,7.7
2023-03-02T12:00:07.391Z,7.8
2023-03-02T12:01:14.606Z,7.8
2023-03-02T12:02:21.712Z,7.7
2023-03-02T12:03:28.930Z,7.7
2023-03-02T12:04:35.876Z,7.7
2023-03-02T12:05:42.525Z,7.7
2023-03-02T12:06:49.572Z,7.6
2023-03-02T12:07:56.643Z,7.6
2023-03-02T12:09:03.892Z,7.5
2023-03-02T12:10:10.967Z,7.5
2023-03-02T12:11:17.419Z,7.5
2023-03-02T12:12:24.580Z,7.5
2023-03-02T12:13:31.792Z,7.5
2023-03-02T12:14:38.909Z,7.4
2023-03-02T12:15:45.890Z,7.4
2023-03-02T12:16:52.500Z,7.4
2023-03-02T12:17:59.607Z,7.4
2023-03-02T12:19:06.712Z,7.4
2023-03-02T12:20:13.872Z,7.4
2023-03-02T12:21:20.944Z,7.4
2023-03-02T12:22:27.584Z,7.4
2023-03-02T12:23:34.658Z,7.4
2023-03-02T12:24:41.670Z,7.4
2023-03-02T12:25:48.848Z,7.4
2023-03-02T12:26:55.888Z,7.4
2023-03-02T12:28:02.520Z,7.4
2023-03-02T12:30:16.877Z,7.4
2023-03-02T12:31:23.837Z,7.4
2023-03-02T12:32:30.976Z,7.3
2023-03-02T12:33:37.526Z,7.3
2023-03-02T12:34:44.681Z,7.2
2023-03-02T12:35:51.735Z,7.2
2023-03-02T12:36:58.877Z,7.2
2023-03-02T12:38:06.101Z,7.2
2023-03-02T12:39:12.553Z,7.2
2023-03-02T12:40:19.697Z,7.2
2023-03-02T12:41:26.695Z,7.2
2023-03-02T12:42:33.914Z,7.2
2023-03-02T12:43:40.988Z,7.1
2023-03-02T12:44:47.722Z,7.1
2023-03-02T12:45:54.651Z,7.1
2023-03-02T12:47:03.952Z,7
2023-03-02T12:48:09.048Z,7
2023-03-02T12:49:15.968Z,6.9
2023-03-02T12:50:22.575Z,6.9
2023-03-02T12:51:29.699Z,6.8
2023-03-02T12:52:36.817Z,6.8
2023-03-02T12:53:43.896Z,6.8
2023-03-02T12:54:50.424Z,6.8
2023-03-02T12:55:57.519Z,6.7
2023-03-02T12:57:04.681Z,6.7
2023-03-02T12:58:11.738Z,6.7
2023-03-02T12:59:18.834Z,6.7
2023-03-02T13:00:25.507Z,6.7
2023-03-02T13:01:32.618Z,6.7
2023-03-02T13:02:39.736Z,6.7
2023-03-02T13:03:46.872Z,6.8
2023-03-02T13:04:53.869Z,6.8
2023-03-02T13:06:00.507Z,6.9
2023-03-02T13:07:07.550Z,6.9
2023-03-02T13:08:14.634Z,6.9
2023-03-02T13:09:21.768Z,6.8
2023-03-02T13:10:28.942Z,6.9
2023-03-02T13:11:35.543Z,6.8
2023-03-02T13:12:42.606Z,6.8
2023-03-02T13:13:49.900Z,6.7
2023-03-02T13:14:56.840Z,6.7
2023-03-02T13:16:03.854Z,6.7
2023-03-02T13:17:10.486Z,6.7
2023-03-02T13:18:18.034Z,6.7
2023-03-02T13:19:24.723Z,6.7
2023-03-02T13:20:31.802Z,6.7
2023-03-02T13:21:38.905Z,6.6
2023-03-02T13:22:45.483Z,6.7
2023-03-02T13:23:52.643Z,6.6
2023-03-02T13:24:59.700Z,6.6
2023-03-02T13:26:06.826Z,6.6
2023-03-02T13:27:14.011Z,6.6
2023-03-02T13:28:20.462Z,6.7
2023-03-02T13:29:27.629Z,6.7
2023-03-02T13:30:34.944Z,6.7
2023-03-02T13:31:41.839Z,6.8
2023-03-02T13:32:48.987Z,6.8
2023-03-02T13:33:55.679Z,6.9
2023-03-02T13:35:02.554Z,7
2023-03-02T13:36:09.693Z,7.1
2023-03-02T13:37:16.778Z,7.1
2023-03-02T13:38:24.035Z,7.2
2023-03-02T13:39:30.584Z,7.2
2023-03-02T13:40:37.597Z,7.2
2023-03-02T13:41:44.729Z,7.3
2023-03-02T13:42:51.884Z,7.3
2023-03-02T13:43:58.858Z,7.4
2023-03-02T13:45:05.559Z,7.4
2023-03-02T13:46:12.795Z,7.5
2023-03-02T13:47:19.733Z,7.5
2023-03-02T13:48:26.819Z,7.6
2023-03-02T13:49:33.979Z,7.6
2023-03-02T13:50:40.513Z,7.7
2023-03-02T13:51:47.554Z,7.8
2023-03-02T13:52:55.196Z,7.8
2023-03-02T13:54:01.830Z,7.9
2023-03-02T13:55:08.871Z,7.9
2023-03-02T13:56:15.518Z,7.9
2023-03-02T13:58:29.770Z,7.9
2023-03-02T13:59:36.987Z,7.9
2023-03-02T14:00:43.998Z,7.9
2023-03-02T14:01:50.539Z,7.9
2023-03-02T14:04:04.849Z,7.8
2023-03-02T14:05:12.009Z,7.8
2023-03-02T14:06:18.968Z,7.8
2023-03-02T14:07:25.571Z,7.8
2023-03-02T14:08:32.748Z,7.8
2023-03-02T14:09:39.771Z,7.9
2023-03-02T14:10:46.971Z,7.9
2023-03-02T14:11:54.087Z,7.9
2023-03-02T14:13:00.468Z,8
2023-03-02T14:14:07.774Z,8.1
2023-03-02T14:15:14.894Z,8.1
2023-03-02T14:16:21.898Z,8.1
2023-03-02T14:17:28.381Z,8.1
2023-03-02T14:18:35.496Z,8.1
2023-03-02T14:19:42.747Z,8.1
2023-03-02T14:20:49.843Z,8.1
2023-03-02T14:21:56.994Z,8
2023-03-02T14:23:03.500Z,8
2023-03-02T14:24:10.564Z,8
2023-03-02T14:25:17.683Z,8
2023-03-02T14:26:24.804Z,8
2023-03-02T14:27:31.926Z,8
2023-03-02T14:28:38.392Z,8.1
2023-03-02T14:29:45.524Z,8.1
2023-03-02T14:30:54.544Z,8.1
2023-03-02T14:31:59.811Z,8.1
2023-03-02T14:33:06.846Z,8
2023-03-02T14:34:13.529Z,8
2023-03-02T14:35:20.701Z,8
2023-03-02T14:36:27.638Z,8
2023-03-02T14:37:34.738Z,8
2023-03-02T14:38:41.954Z,8
2023-03-02T14:39:48.535Z,8
2023-03-02T14:40:55.691Z,8
2023-03-02T14:42:02.698Z,8
2023-03-02T14:43:09.725Z,8
2023-03-02T14:44:16.899Z,8
2023-03-02T14:45:23.497Z,7.9
2023-03-02T14:46:30.600Z,7.9
2023-03-02T14:47:37.670Z,7.9
2023-03-02T14:48:44.811Z,7.9
2023-03-02T14:49:51.883Z,7.9
2023-03-02T14:51:01.089Z,7.9
2023-03-02T14:52:05.623Z,7.9
2023-03-02T14:53:12.684Z,7.9
2023-03-02T14:54:19.747Z,7.9
2023-03-02T14:55:26.961Z,7.8
2023-03-02T14:56:33.587Z,7.8
2023-03-02T14:57:40.587Z,7.7
2023-03-02T14:58:47.730Z,7.8
2023-03-02T14:59:54.823Z,7.7
2023-03-02T15:01:01.933Z,7.8
2023-03-02T15:02:23.942Z,7.8
2023-03-02T15:03:15.805Z,7.7
2023-03-02T15:04:22.696Z,7.7
2023-03-02T15:05:29.814Z,7.7
2023-03-02T15:07:43.555Z,7.7
2023-03-02T15:08:50.605Z,7.6
2023-03-02T15:09:57.754Z,7.6
2023-03-02T15:11:04.840Z,7.6
2023-03-02T15:12:11.962Z,7.6
2023-03-02T15:13:18.560Z,7.5
2023-03-02T15:14:25.661Z,7.5
2023-03-02T15:15:32.814Z,7.5
2023-03-02T15:16:39.857Z,7.5
2023-03-02T15:17:46.974Z,7.5
2023-03-02T15:18:53.623Z,7.5
2023-03-02T15:20:00.656Z,7.5
2023-03-02T15:21:07.675Z,7.4
2023-03-02T15:22:14.822Z,7.4
2023-03-02T15:23:21.969Z,7.4
2023-03-02T15:24:29.859Z,7.4
2023-03-02T15:26:42.722Z,7.4
2023-03-02T15:27:49.833Z,7.4
2023-03-02T15:28:56.556Z,7.4
2023-03-02T15:30:03.625Z,7.4
2023-03-02T15:31:10.648Z,7.4
2023-03-02T15:32:17.800Z,7.4
2023-03-02T15:33:24.832Z,7.4
2023-03-02T15:34:31.438Z,7.4
2023-03-02T15:35:38.580Z,7.4
2023-03-02T15:36:45.625Z,7.4
2023-03-02T15:37:52.816Z,7.4
2023-03-02T15:38:59.844Z,7.4
2023-03-02T15:40:06.478Z,7.4
2023-03-02T15:41:13.545Z,7.4
2023-03-02T15:42:20.683Z,7.4
2023-03-02T15:43:27.709Z,7.4
2023-03-02T15:44:34.946Z,7.4
2023-03-02T15:45:41.457Z,7.4
2023-03-02T15:46:48.579Z,7.4
2023-03-02T15:47:55.696Z,7.4
2023-03-02T15:49:02.814Z,7.4
2023-03-02T15:50:09.915Z,7.5
2023-03-02T15:51:16.527Z,7.5